RYR25TF EGNS-EGNT
Flight info
| Callsign | RYR25TF |
|---|---|
| Flight time | 0h 25m |
| Altitude | 19000 |
| Route | IOM DCT DCS |
| Aircraft | B38M/M-SDE1FGHILORVWXY/HB1 |
Departure
| Time | 2026-04-23 15:53 |
|---|---|
| Airport | Isle of Man Airport (EGNS) |
Arrival
| Time | 2026-04-23 16:18 |
|---|---|
| Airport | Newcastle International Airport (EGNT) |
| Time | Latitude | Longitude | Altitude | Speed | Heading |
|---|---|---|---|---|---|
| 2026-04-23 15:27 | 54.08587 | -4.63321 | 46 ft | 0 kts | 45° |
| 2026-04-23 15:44 | 54.08581 | -4.63330 | 48 ft | 2 kts | 47° |
| 2026-04-23 15:44 | 54.08570 | -4.63350 | 46 ft | 2 kts | 50° |
| 2026-04-23 15:44 | 54.08561 | -4.63373 | 48 ft | 2 kts | 66° |
| 2026-04-23 15:44 | 54.08561 | -4.63399 | 48 ft | 2 kts | 129° |
| 2026-04-23 15:45 | 54.08564 | -4.63406 | 48 ft | 0 kts | 136° |
| 2026-04-23 15:46 | 54.08564 | -4.63405 | 48 ft | 0 kts | 136° |
| 2026-04-23 15:48 | 54.08561 | -4.63400 | 48 ft | 3 kts | 133° |
| 2026-04-23 15:48 | 54.08525 | -4.63336 | 48 ft | 13 kts | 139° |
| 2026-04-23 15:49 | 54.08497 | -4.63338 | 48 ft | 6 kts | 211° |
| 2026-04-23 15:49 | 54.08425 | -4.63399 | 46 ft | 9 kts | 187° |
| 2026-04-23 15:49 | 54.08377 | -4.63392 | 45 ft | 5 kts | 211° |
| 2026-04-23 15:49 | 54.08351 | -4.63497 | 45 ft | 13 kts | 257° |
| 2026-04-23 15:50 | 54.08346 | -4.63532 | 46 ft | 4 kts | 257° |
| 2026-04-23 15:50 | 54.08338 | -4.63576 | 49 ft | 4 kts | 250° |
| 2026-04-23 15:50 | 54.08308 | -4.63683 | 48 ft | 18 kts | 242° |
| 2026-04-23 15:50 | 54.08232 | -4.63907 | 43 ft | 10 kts | 213° |
| 2026-04-23 15:51 | 54.08150 | -4.63869 | 36 ft | 14 kts | 141° |
| 2026-04-23 15:51 | 54.08148 | -4.63833 | 37 ft | 7 kts | 80° |
| 2026-04-23 15:51 | 54.08175 | -4.63608 | 38 ft | 5 kts | 79° |
| 2026-04-23 15:51 | 54.08178 | -4.63580 | 37 ft | 0 kts | 79° |
| 2026-04-23 15:52 | 54.08179 | -4.63576 | 37 ft | 0 kts | 79° |
| 2026-04-23 15:52 | 54.08182 | -4.63550 | 37 ft | 6 kts | 79° |
| 2026-04-23 15:52 | 54.08252 | -4.62980 | 45 ft | 95 kts | 78° |
| 2026-04-23 15:52 | 54.08442 | -4.61453 | 211 ft | 158 kts | 79° |
| 2026-04-23 15:53 | 54.08680 | -4.59498 | 1064 ft | 170 kts | 81° |
| 2026-04-23 15:53 | 54.08920 | -4.57642 | 2030 ft | 166 kts | 82° |
| 2026-04-23 15:53 | 54.09150 | -4.55554 | 2672 ft | 185 kts | 85° |
| 2026-04-23 15:53 | 54.09362 | -4.53275 | 3295 ft | 205 kts | 84° |
| 2026-04-23 15:54 | 54.09618 | -4.50787 | 4020 ft | 224 kts | 77° |
| 2026-04-23 15:54 | 54.10345 | -4.48247 | 4560 ft | 255 kts | 55° |
| 2026-04-23 15:54 | 54.11603 | -4.46066 | 5527 ft | 263 kts | 49° |
| 2026-04-23 15:54 | 54.12897 | -4.43721 | 6309 ft | 279 kts | 49° |
| 2026-04-23 15:55 | 54.14224 | -4.41306 | 7371 ft | 280 kts | 50° |
| 2026-04-23 15:55 | 54.15559 | -4.38886 | 8281 ft | 288 kts | 49° |
| 2026-04-23 15:55 | 54.16961 | -4.36342 | 9246 ft | 294 kts | 49° |
| 2026-04-23 15:55 | 54.18376 | -4.33774 | 10173 ft | 300 kts | 48° |
| 2026-04-23 15:56 | 54.19825 | -4.31142 | 10951 ft | 310 kts | 48° |
| 2026-04-23 15:56 | 54.21346 | -4.28367 | 11425 ft | 330 kts | 48° |
| 2026-04-23 15:56 | 54.22955 | -4.25429 | 11960 ft | 345 kts | 48° |
| 2026-04-23 15:56 | 54.24616 | -4.22395 | 12682 ft | 352 kts | 47° |
| 2026-04-23 15:57 | 54.26299 | -4.19324 | 13526 ft | 356 kts | 47° |
| 2026-04-23 15:57 | 54.28006 | -4.16205 | 14295 ft | 362 kts | 47° |
| 2026-04-23 15:57 | 54.29734 | -4.13043 | 14998 ft | 365 kts | 47° |
| 2026-04-23 15:57 | 54.31474 | -4.09856 | 15771 ft | 367 kts | 47° |
| 2026-04-23 15:58 | 54.33219 | -4.06656 | 16504 ft | 369 kts | 47° |
| 2026-04-23 15:58 | 54.34977 | -4.03427 | 17207 ft | 372 kts | 47° |
| 2026-04-23 15:58 | 54.36747 | -4.00173 | 17907 ft | 374 kts | 47° |
| 2026-04-23 15:58 | 54.38504 | -3.96938 | 18585 ft | 377 kts | 48° |
| 2026-04-23 15:59 | 54.40318 | -3.93594 | 19167 ft | 380 kts | 47° |
| 2026-04-23 15:59 | 54.42106 | -3.90293 | 19370 ft | 384 kts | 47° |
| 2026-04-23 15:59 | 54.43975 | -3.86833 | 19392 ft | 396 kts | 47° |
| 2026-04-23 15:59 | 54.45833 | -3.83390 | 19417 ft | 401 kts | 48° |
| 2026-04-23 16:00 | 54.47738 | -3.79859 | 19424 ft | 403 kts | 48° |
| 2026-04-23 16:00 | 54.49638 | -3.76332 | 19441 ft | 396 kts | 48° |
| 2026-04-23 16:00 | 54.51470 | -3.72930 | 19443 ft | 380 kts | 48° |
| 2026-04-23 16:00 | 54.53241 | -3.69635 | 19446 ft | 373 kts | 48° |
| 2026-04-23 16:01 | 54.55004 | -3.66346 | 18912 ft | 375 kts | 48° |
| 2026-04-23 16:01 | 54.56766 | -3.63058 | 18403 ft | 375 kts | 48° |
| 2026-04-23 16:01 | 54.58525 | -3.59770 | 17954 ft | 372 kts | 48° |
| 2026-04-23 16:01 | 54.60267 | -3.56509 | 17557 ft | 368 kts | 48° |
| 2026-04-23 16:02 | 54.61995 | -3.53270 | 17157 ft | 365 kts | 48° |
| 2026-04-23 16:02 | 54.63705 | -3.50061 | 16764 ft | 362 kts | 48° |
| 2026-04-23 16:02 | 54.65405 | -3.46864 | 16374 ft | 359 kts | 48° |
| 2026-04-23 16:02 | 54.67091 | -3.43692 | 15973 ft | 357 kts | 48° |
| 2026-04-23 16:03 | 54.68758 | -3.40549 | 15592 ft | 355 kts | 48° |
| 2026-04-23 16:03 | 54.70431 | -3.37391 | 15201 ft | 354 kts | 48° |
| 2026-04-23 16:03 | 54.72087 | -3.34260 | 14832 ft | 352 kts | 48° |
| 2026-04-23 16:03 | 54.73625 | -3.31033 | 14641 ft | 345 kts | 59° |
| 2026-04-23 16:04 | 54.74478 | -3.27205 | 14208 ft | 342 kts | 79° |
| 2026-04-23 16:04 | 54.75061 | -3.23201 | 13656 ft | 344 kts | 75° |
| 2026-04-23 16:04 | 54.75723 | -3.19220 | 13214 ft | 344 kts | 74° |
| 2026-04-23 16:04 | 54.76399 | -3.15262 | 12833 ft | 341 kts | 74° |
| 2026-04-23 16:05 | 54.76848 | -3.12665 | 12591 ft | 339 kts | 74° |
| 2026-04-23 16:05 | 54.77756 | -3.07464 | 12103 ft | 335 kts | 74° |
| 2026-04-23 16:05 | 54.78432 | -3.03615 | 11735 ft | 333 kts | 73° |
| 2026-04-23 16:05 | 54.79103 | -2.99788 | 11377 ft | 331 kts | 74° |
| 2026-04-23 16:06 | 54.79769 | -2.95985 | 10991 ft | 329 kts | 74° |
| 2026-04-23 16:06 | 54.80431 | -2.92210 | 10616 ft | 322 kts | 74° |
| 2026-04-23 16:06 | 54.81064 | -2.88581 | 10397 ft | 306 kts | 74° |
| 2026-04-23 16:06 | 54.81658 | -2.85154 | 10251 ft | 288 kts | 75° |
| 2026-04-23 16:07 | 54.82208 | -2.81982 | 10116 ft | 275 kts | 75° |
| 2026-04-23 16:07 | 54.82761 | -2.78790 | 9949 ft | 268 kts | 75° |
| 2026-04-23 16:07 | 54.83299 | -2.75678 | 9675 ft | 274 kts | 75° |
| 2026-04-23 16:07 | 54.83852 | -2.72484 | 9369 ft | 278 kts | 74° |
| 2026-04-23 16:08 | 54.84410 | -2.69256 | 9056 ft | 281 kts | 73° |
| 2026-04-23 16:08 | 54.84975 | -2.65985 | 8745 ft | 283 kts | 73° |
| 2026-04-23 16:08 | 54.85539 | -2.62719 | 8453 ft | 282 kts | 74° |
| 2026-04-23 16:08 | 54.86097 | -2.59470 | 8163 ft | 281 kts | 74° |
| 2026-04-23 16:09 | 54.86653 | -2.56228 | 7852 ft | 279 kts | 74° |
| 2026-04-23 16:09 | 54.87205 | -2.53006 | 7557 ft | 277 kts | 74° |
| 2026-04-23 16:09 | 54.87752 | -2.49810 | 7254 ft | 276 kts | 75° |
| 2026-04-23 16:09 | 54.88295 | -2.46623 | 6978 ft | 274 kts | 75° |
| 2026-04-23 16:10 | 54.88835 | -2.43456 | 6675 ft | 273 kts | 75° |
| 2026-04-23 16:10 | 54.89365 | -2.40338 | 6363 ft | 272 kts | 75° |
| 2026-04-23 16:10 | 54.89838 | -2.37168 | 6066 ft | 270 kts | 79° |
| 2026-04-23 16:10 | 54.90224 | -2.34009 | 5868 ft | 263 kts | 80° |
| 2026-04-23 16:11 | 54.90595 | -2.30968 | 5716 ft | 253 kts | 79° |
| 2026-04-23 16:11 | 54.90960 | -2.28005 | 5418 ft | 248 kts | 80° |
| 2026-04-23 16:11 | 54.91324 | -2.25095 | 5083 ft | 244 kts | 79° |
| 2026-04-23 16:11 | 54.91682 | -2.22231 | 4716 ft | 240 kts | 80° |
| 2026-04-23 16:12 | 54.92036 | -2.19422 | 4346 ft | 237 kts | 80° |
| 2026-04-23 16:12 | 54.92392 | -2.16639 | 3957 ft | 235 kts | 81° |
| 2026-04-23 16:12 | 54.92713 | -2.13876 | 3628 ft | 230 kts | 82° |
| 2026-04-23 16:12 | 54.93037 | -2.11184 | 3552 ft | 228 kts | 77° |
| 2026-04-23 16:13 | 54.93501 | -2.08545 | 3498 ft | 229 kts | 73° |
| 2026-04-23 16:13 | 54.94641 | -2.03547 | 3532 ft | 214 kts | 70° |
| 2026-04-23 16:13 | 54.95245 | -2.01179 | 3535 ft | 214 kts | 68° |
| 2026-04-23 16:14 | 54.95862 | -1.98816 | 3504 ft | 214 kts | 69° |
| 2026-04-23 16:14 | 54.96481 | -1.96473 | 3468 ft | 214 kts | 66° |
| 2026-04-23 16:14 | 54.97105 | -1.94131 | 3208 ft | 211 kts | 68° |
| 2026-04-23 16:14 | 54.97713 | -1.91849 | 2960 ft | 203 kts | 66° |
| 2026-04-23 16:15 | 54.98291 | -1.89672 | 2698 ft | 193 kts | 66° |
| 2026-04-23 16:15 | 54.98842 | -1.87601 | 2462 ft | 182 kts | 66° |
| 2026-04-23 16:15 | 54.99362 | -1.85650 | 2215 ft | 175 kts | 67° |
| 2026-04-23 16:15 | 54.99872 | -1.83726 | 1981 ft | 176 kts | 66° |
| 2026-04-23 16:16 | 55.00382 | -1.81818 | 1719 ft | 168 kts | 66° |
| 2026-04-23 16:16 | 55.00868 | -1.80061 | 1547 ft | 157 kts | 66° |
| 2026-04-23 16:16 | 55.01308 | -1.78384 | 1247 ft | 147 kts | 68° |
| 2026-04-23 16:16 | 55.01729 | -1.76810 | 1042 ft | 142 kts | 66° |
| 2026-04-23 16:17 | 55.02146 | -1.75259 | 886 ft | 140 kts | 68° |
| 2026-04-23 16:17 | 55.02544 | -1.73704 | 695 ft | 140 kts | 68° |
| 2026-04-23 16:17 | 55.02968 | -1.72164 | 515 ft | 141 kts | 68° |
| 2026-04-23 16:17 | 55.03370 | -1.70609 | 331 ft | 139 kts | 70° |
| 2026-04-23 16:18 | 55.03625 | -1.69620 | 261 ft | 128 kts | 69° |
| 2026-04-23 16:18 | 55.03988 | -1.68230 | 247 ft | 54 kts | 64° |
| 2026-04-23 16:18 | 55.04123 | -1.67728 | 242 ft | 36 kts | 65° |
| 2026-04-23 16:18 | 55.04219 | -1.67400 | 238 ft | 19 kts | 40° |
| 2026-04-23 16:19 | 55.04327 | -1.67462 | 238 ft | 20 kts | 285° |
| 2026-04-23 16:19 | 55.04332 | -1.67628 | 239 ft | 21 kts | 255° |
| 2026-04-23 16:19 | 55.04273 | -1.67858 | 242 ft | 21 kts | 245° |
| 2026-04-23 16:19 | 55.04209 | -1.68099 | 244 ft | 24 kts | 245° |
| 2026-04-23 16:20 | 55.04135 | -1.68384 | 247 ft | 27 kts | 244° |
| 2026-04-23 16:20 | 55.04053 | -1.68689 | 250 ft | 29 kts | 245° |
| 2026-04-23 16:20 | 55.03968 | -1.69010 | 254 ft | 31 kts | 245° |
| 2026-04-23 16:20 | 55.03873 | -1.69366 | 257 ft | 33 kts | 245° |
| 2026-04-23 16:21 | 55.03796 | -1.69751 | 260 ft | 35 kts | 253° |
| 2026-04-23 16:21 | 55.03774 | -1.70179 | 258 ft | 38 kts | 272° |
| 2026-04-23 16:21 | 55.03797 | -1.70495 | 257 ft | 18 kts | 272° |
| 2026-04-23 16:21 | 55.03803 | -1.70655 | 257 ft | 10 kts | 277° |
| 2026-04-23 16:22 | 55.03811 | -1.70801 | 257 ft | 11 kts | 271° |
| 2026-04-23 16:22 | 55.03803 | -1.70833 | 258 ft | 1 kts | 210° |
| 2026-04-23 16:22 | 55.03774 | -1.70835 | 259 ft | 9 kts | 184° |
| 2026-04-23 16:22 | 55.03748 | -1.70838 | 260 ft | 0 kts | 184° |